createdAt,value
2019-02-02T00:02:14.016Z,7.07
2019-02-02T00:04:43.274Z,10.20
2019-02-02T00:07:12.608Z,9.87
2019-02-02T00:09:41.976Z,6.27
2019-02-02T00:12:11.202Z,8.23
2019-02-02T00:14:40.423Z,8.30
2019-02-02T00:17:10.894Z,11.93
2019-02-02T00:19:40.251Z,9.43
2019-02-02T00:22:09.474Z,11.40
2019-02-02T00:24:38.710Z,11.03
2019-02-02T00:27:08.345Z,8.47
2019-02-02T00:29:37.556Z,9.13
2019-02-02T00:32:08.443Z,8.57
2019-02-02T00:34:37.654Z,10.50
2019-02-02T00:37:06.822Z,9.00
2019-02-02T00:39:36.069Z,11.27
2019-02-02T00:42:05.515Z,11.33
2019-02-02T00:44:36.184Z,12.67
2019-02-02T00:47:05.667Z,11.33
2019-02-02T00:49:34.878Z,12.23
2019-02-02T00:52:04.172Z,8.90
2019-02-02T00:54:33.392Z,17.10
2019-02-02T00:57:02.761Z,7.90
2019-02-02T00:59:32.068Z,10.00
2019-02-02T01:02:01.244Z,11.10
2019-02-02T01:04:30.450Z,13.27
2019-02-02T01:06:59.664Z,15.17
2019-02-02T01:09:28.991Z,8.97
2019-02-02T01:11:58.430Z,11.27
2019-02-02T01:14:27.667Z,12.87
2019-02-02T01:16:56.969Z,7.80
2019-02-02T01:19:26.172Z,12.20
2019-02-02T01:21:55.352Z,8.63
2019-02-02T01:24:24.598Z,8.30
2019-02-02T01:26:53.807Z,8.30
2019-02-02T01:29:22.988Z,10.87
2019-02-02T01:31:52.237Z,11.47
2019-02-02T01:34:21.430Z,10.60
2019-02-02T01:36:50.622Z,13.03
2019-02-02T01:39:19.843Z,11.37
2019-02-02T01:41:49.029Z,7.80
2019-02-02T01:44:18.501Z,9.77
2019-02-02T01:46:47.777Z,8.60
2019-02-02T01:49:17.125Z,9.90
2019-02-02T01:51:46.392Z,9.73
2019-02-02T01:54:15.570Z,8.83
2019-02-02T01:56:44.819Z,9.93
2019-02-02T01:59:13.959Z,9.73
2019-02-02T02:01:43.215Z,8.87
2019-02-02T02:04:12.471Z,7.83
2019-02-02T02:06:41.786Z,8.53
2019-02-02T02:09:11.909Z,8.03
2019-02-02T02:11:41.189Z,6.93
2019-02-02T02:14:10.827Z,6.17
2019-02-02T02:16:40.066Z,7.07
2019-02-02T02:19:09.316Z,9.77
2019-02-02T02:21:38.504Z,7.00
2019-02-02T02:24:07.890Z,6.53
2019-02-02T02:26:37.209Z,8.53
2019-02-02T02:29:06.438Z,10.70
2019-02-02T02:31:35.984Z,8.90
2019-02-02T02:34:05.186Z,7.47
2019-02-02T02:36:34.368Z,16.03
2019-02-02T02:39:04.693Z,7.87
2019-02-02T02:41:33.886Z,9.30
2019-02-02T02:44:03.150Z,8.83
2019-02-02T02:46:32.429Z,9.17
2019-02-02T02:49:01.636Z,11.67
2019-02-02T02:51:30.860Z,12.33
2019-02-02T02:54:00.094Z,11.10
2019-02-02T02:56:29.655Z,12.13
2019-02-02T02:58:59.738Z,9.93
2019-02-02T03:01:29.023Z,9.00
2019-02-02T03:03:58.211Z,9.80
2019-02-02T03:06:27.410Z,9.60
2019-02-02T03:08:56.677Z,11.90
2019-02-02T03:11:25.965Z,12.43
2019-02-02T03:13:56.502Z,9.60
2019-02-02T03:16:26.078Z,14.87
2019-02-02T03:18:55.335Z,12.20
2019-02-02T03:21:24.481Z,12.33
2019-02-02T03:23:53.725Z,19.20
2019-02-02T03:26:22.934Z,15.17
2019-02-02T03:28:53.577Z,16.17
2019-02-02T03:31:23.293Z,13.27
2019-02-02T03:33:52.576Z,15.87
2019-02-02T03:36:21.763Z,16.80
2019-02-02T03:38:51.012Z,13.47
2019-02-02T03:41:20.235Z,15.53
2019-02-02T03:43:49.470Z,16.53
2019-02-02T03:46:18.692Z,15.03
2019-02-02T03:48:47.925Z,18.93
2019-02-02T03:51:17.132Z,14.63
2019-02-02T03:53:46.380Z,17.47
2019-02-02T03:56:15.587Z,16.87
2019-02-02T03:58:44.848Z,14.73
2019-02-02T04:01:14.088Z,17.43
2019-02-02T04:03:43.475Z,14.73
2019-02-02T04:06:12.750Z,14.87
2019-02-02T04:08:42.010Z,13.80
2019-02-02T04:11:11.208Z,13.27
2019-02-02T04:13:40.419Z,14.47
2019-02-02T04:16:09.784Z,15.23
2019-02-02T04:18:39.300Z,14.20
2019-02-02T04:21:08.480Z,18.33
2019-02-02T04:23:37.757Z,11.57
2019-02-02T04:26:06.978Z,12.57
2019-02-02T04:28:36.177Z,12.67
2019-02-02T04:31:05.411Z,14.57
2019-02-02T04:33:34.611Z,18.27
2019-02-02T04:36:03.830Z,14.50
2019-02-02T04:38:33.145Z,14.87
2019-02-02T04:41:02.330Z,13.37
2019-02-02T04:43:31.536Z,16.93
2019-02-02T04:46:00.763Z,14.20
2019-02-02T04:48:32.392Z,13.00
2019-02-02T04:51:00.984Z,15.87
2019-02-02T04:53:30.275Z,14.77
2019-02-02T04:55:59.512Z,15.77
2019-02-02T04:58:28.823Z,16.70
2019-02-02T05:00:58.038Z,16.33
2019-02-02T05:03:27.247Z,15.97
2019-02-02T05:05:56.462Z,19.87
2019-02-02T05:08:25.721Z,18.87
2019-02-02T05:10:54.922Z,23.13
2019-02-02T05:13:24.169Z,25.13
2019-02-02T05:15:53.439Z,19.80
2019-02-02T05:18:22.820Z,20.90
2019-02-02T05:20:52.296Z,17.73
2019-02-02T05:23:21.549Z,21.00
2019-02-02T05:25:50.804Z,21.43
2019-02-02T05:28:19.992Z,20.77
2019-02-02T05:30:49.217Z,20.07
2019-02-02T05:33:18.421Z,19.43
2019-02-02T05:35:47.682Z,24.23
2019-02-02T05:38:16.884Z,22.20
2019-02-02T05:40:46.279Z,26.13
2019-02-02T05:43:15.520Z,23.17
2019-02-02T05:45:44.791Z,20.57
2019-02-02T05:48:13.975Z,22.83
2019-02-02T05:50:43.177Z,23.10
2019-02-02T05:53:12.461Z,21.77
2019-02-02T05:55:41.666Z,25.23
2019-02-02T05:58:10.859Z,21.40
2019-02-02T06:00:43.375Z,19.93
2019-02-02T06:03:12.593Z,23.10
2019-02-02T06:05:41.794Z,19.10
2019-02-02T06:08:11.133Z,22.63
2019-02-02T06:10:40.450Z,21.47
2019-02-02T06:13:09.665Z,15.63
2019-02-02T06:15:38.992Z,21.33
2019-02-02T06:18:08.208Z,18.97
2019-02-02T06:20:37.540Z,18.83
2019-02-02T06:23:07.061Z,19.97
2019-02-02T06:25:36.313Z,17.70
2019-02-02T06:28:06.118Z,20.13
2019-02-02T06:30:35.393Z,21.83
2019-02-02T06:33:04.689Z,20.77
2019-02-02T06:35:33.912Z,20.97
2019-02-02T06:38:03.153Z,24.90
2019-02-02T06:40:32.375Z,21.30
2019-02-02T06:43:01.574Z,20.23
2019-02-02T06:45:33.061Z,21.07
2019-02-02T06:48:02.300Z,20.50
2019-02-02T06:50:31.603Z,19.27
2019-02-02T06:53:01.230Z,23.17
2019-02-02T06:55:30.433Z,23.67
2019-02-02T06:57:59.640Z,19.43
2019-02-02T07:00:28.911Z,20.73
2019-02-02T07:02:58.223Z,20.70
2019-02-02T07:05:27.590Z,25.57
2019-02-02T07:07:56.898Z,26.37
2019-02-02T07:10:27.123Z,24.17
2019-02-02T07:12:56.333Z,18.53
2019-02-02T07:15:28.230Z,19.57
2019-02-02T07:17:57.723Z,25.00
2019-02-02T07:20:26.997Z,24.90
2019-02-02T07:22:59.012Z,22.20
2019-02-02T07:25:28.451Z,24.33
2019-02-02T07:27:57.959Z,19.30
2019-02-02T07:30:29.054Z,22.07
2019-02-02T07:32:58.274Z,18.53
2019-02-02T07:35:27.503Z,23.03
2019-02-02T07:37:56.758Z,20.23
2019-02-02T07:40:26.016Z,27.27
2019-02-02T07:42:55.328Z,24.37
2019-02-02T07:45:27.198Z,19.87
2019-02-02T07:47:56.574Z,21.27
2019-02-02T07:50:26.282Z,21.67
2019-02-02T07:52:55.640Z,21.13
2019-02-02T07:55:24.841Z,23.87
2019-02-02T07:57:54.033Z,19.70
2019-02-02T08:00:39.760Z,21.33
2019-02-02T08:03:01.465Z,23.47
2019-02-02T08:05:30.726Z,20.47
2019-02-02T08:08:00.267Z,19.93
2019-02-02T08:10:29.480Z,20.43
2019-02-02T08:12:58.715Z,21.43
2019-02-02T08:15:29.708Z,23.33
2019-02-02T08:17:58.929Z,21.40
2019-02-02T08:20:28.136Z,27.57
2019-02-02T08:22:57.412Z,23.47
2019-02-02T08:25:26.680Z,23.47
2019-02-02T08:27:56.011Z,19.43
2019-02-02T08:30:28.016Z,20.43
2019-02-02T08:33:00.068Z,13.70
2019-02-02T08:35:29.561Z,17.63
2019-02-02T08:37:59.327Z,14.27
2019-02-02T08:40:28.562Z,14.53
2019-02-02T08:42:58.164Z,14.10
2019-02-02T08:45:27.410Z,17.60
2019-02-02T08:47:56.616Z,16.80
2019-02-02T08:50:28.492Z,18.93
2019-02-02T08:52:57.766Z,14.53
2019-02-02T08:55:27.092Z,18.83
2019-02-02T08:57:56.356Z,17.10
2019-02-02T09:00:25.581Z,16.60
2019-02-02T09:02:54.777Z,18.87
2019-02-02T09:05:24.458Z,19.63
2019-02-02T09:07:53.838Z,18.97
2019-02-02T09:10:26.498Z,18.30
2019-02-02T09:12:55.950Z,19.60
2019-02-02T09:15:25.239Z,17.27
2019-02-02T09:17:54.441Z,16.40
2019-02-02T09:20:23.755Z,19.43
2019-02-02T09:23:03.874Z,16.03
2019-02-02T09:25:23.976Z,18.63
2019-02-02T09:27:53.359Z,15.37
2019-02-02T09:30:25.356Z,19.47
2019-02-02T09:32:54.551Z,24.13
2019-02-02T09:35:23.759Z,20.37
2019-02-02T09:37:53.127Z,17.13
2019-02-02T09:40:25.707Z,18.30
2019-02-02T09:42:55.461Z,18.27
2019-02-02T09:45:24.934Z,20.53
2019-02-02T09:47:54.230Z,21.17
2019-02-02T09:50:24.453Z,20.63
2019-02-02T09:52:53.877Z,22.73
2019-02-02T09:55:24.166Z,19.40
2019-02-02T09:57:55.718Z,25.03
2019-02-02T10:00:27.310Z,21.03
2019-02-02T10:02:56.865Z,27.03
2019-02-02T10:05:26.652Z,25.27
2019-02-02T10:07:56.209Z,22.87
2019-02-02T10:10:27.400Z,21.63
2019-02-02T10:12:56.711Z,23.07
2019-02-02T10:15:26.151Z,22.93
2019-02-02T10:17:55.336Z,23.50
2019-02-02T10:20:26.477Z,21.20
2019-02-02T10:22:56.052Z,24.67
2019-02-02T10:25:27.153Z,22.23
2019-02-02T10:27:56.700Z,23.53
2019-02-02T10:30:31.426Z,21.13
2019-02-02T10:33:00.786Z,19.13
2019-02-02T10:35:30.178Z,20.87
2019-02-02T10:37:59.439Z,22.57
2019-02-02T10:40:29.999Z,23.77
2019-02-02T10:43:01.310Z,24.10
2019-02-02T10:45:34.472Z,22.13
2019-02-02T10:48:04.145Z,25.50
2019-02-02T10:50:33.632Z,24.80
2019-02-02T10:53:02.855Z,22.47
2019-02-02T10:55:32.131Z,22.33
2019-02-02T10:58:01.358Z,27.13
2019-02-02T11:00:32.570Z,25.90
2019-02-02T11:03:01.973Z,19.87
2019-02-02T11:05:31.237Z,21.77
2019-02-02T11:08:01.421Z,23.20
2019-02-02T11:10:31.401Z,25.23
2019-02-02T11:13:00.653Z,17.93
2019-02-02T11:15:30.182Z,22.13
2019-02-02T11:17:59.898Z,23.57
2019-02-02T11:20:33.333Z,18.47
2019-02-02T11:23:04.458Z,23.17
2019-02-02T11:25:33.660Z,22.00
2019-02-02T11:28:02.865Z,19.40
2019-02-02T11:30:32.603Z,17.70
2019-02-02T11:33:01.923Z,19.47
2019-02-02T11:35:31.126Z,17.70
2019-02-02T11:38:00.463Z,20.97
2019-02-02T11:40:34.381Z,20.87
2019-02-02T11:43:05.089Z,22.43
2019-02-02T11:45:34.383Z,16.97
2019-02-02T11:48:03.718Z,15.37
2019-02-02T11:50:32.984Z,18.67
2019-02-02T11:53:02.225Z,19.93
2019-02-02T11:55:31.500Z,17.77
2019-02-02T11:58:00.841Z,24.47
2019-02-02T12:00:32.499Z,17.37
2019-02-02T12:03:04.336Z,16.43
2019-02-02T12:05:32.718Z,19.87
2019-02-02T12:08:01.968Z,21.10
2019-02-02T12:10:31.341Z,17.47
2019-02-02T12:13:00.580Z,17.80
2019-02-02T12:15:29.914Z,20.90
2019-02-02T12:17:59.590Z,16.40
2019-02-02T12:20:29.276Z,17.90
2019-02-02T12:22:58.698Z,19.87
2019-02-02T12:25:27.939Z,18.27
2019-02-02T12:27:57.184Z,15.87
2019-02-02T12:30:34.094Z,18.77
2019-02-02T12:33:03.822Z,15.83
2019-02-02T12:35:33.210Z,16.90
2019-02-02T12:38:04.824Z,14.60
2019-02-02T12:40:34.083Z,17.93
2019-02-02T12:43:03.339Z,14.13
2019-02-02T12:45:39.313Z,18.43
2019-02-02T12:48:08.817Z,19.37
2019-02-02T12:50:38.000Z,17.17
2019-02-02T12:53:07.261Z,19.97
2019-02-02T12:55:36.460Z,16.93
2019-02-02T12:58:06.755Z,16.23
2019-02-02T13:00:36.064Z,20.70
2019-02-02T13:03:05.740Z,19.67
2019-02-02T13:05:35.103Z,19.43
2019-02-02T13:08:06.879Z,19.20
2019-02-02T13:10:38.180Z,23.40
2019-02-02T13:13:07.455Z,18.90
2019-02-02T13:15:36.739Z,19.27
2019-02-02T13:18:06.073Z,21.10
2019-02-02T13:20:35.503Z,19.80
2019-02-02T13:23:04.776Z,19.30
2019-02-02T13:25:34.073Z,18.97
2019-02-02T13:28:03.302Z,15.30
2019-02-02T13:30:34.423Z,18.37
2019-02-02T13:33:03.716Z,16.50
2019-02-02T13:35:35.069Z,15.50
2019-02-02T13:38:04.592Z,19.83
2019-02-02T13:40:37.515Z,14.63
2019-02-02T13:43:06.781Z,13.97
2019-02-02T13:45:38.201Z,15.53
2019-02-02T13:48:07.736Z,17.50
2019-02-02T13:50:37.584Z,19.17
2019-02-02T13:53:08.411Z,15.60
2019-02-02T13:55:39.930Z,15.07
2019-02-02T13:58:10.570Z,16.20
2019-02-02T14:00:41.112Z,17.47
2019-02-02T14:03:10.573Z,15.67
2019-02-02T14:05:41.243Z,18.90
2019-02-02T14:08:10.704Z,20.60
2019-02-02T14:10:40.088Z,18.60
2019-02-02T14:13:09.289Z,15.57
2019-02-02T14:15:39.268Z,15.57
2019-02-02T14:18:08.888Z,20.27
2019-02-02T14:20:38.126Z,17.57
2019-02-02T14:23:07.680Z,19.60
2019-02-02T14:25:36.889Z,18.70
2019-02-02T14:28:06.094Z,21.50
2019-02-02T14:30:35.419Z,19.50
2019-02-02T14:33:14.145Z,18.43
2019-02-02T14:35:38.504Z,17.23
2019-02-02T14:38:07.772Z,14.83
2019-02-02T14:40:37.552Z,19.67
2019-02-02T14:43:06.753Z,16.70
2019-02-02T14:45:36.070Z,17.83
2019-02-02T14:48:05.353Z,15.47
2019-02-02T14:50:34.676Z,15.53
2019-02-02T14:53:05.236Z,22.47
2019-02-02T14:55:34.706Z,16.47
2019-02-02T14:58:03.888Z,18.27
2019-02-02T15:00:33.142Z,14.03
2019-02-02T15:03:03.444Z,16.13
2019-02-02T15:05:42.398Z,14.90
2019-02-02T15:08:05.983Z,15.30
2019-02-02T15:10:35.210Z,12.40
2019-02-02T15:13:04.465Z,19.03
2019-02-02T15:15:33.786Z,13.63
2019-02-02T15:18:03.001Z,14.03
2019-02-02T15:20:34.342Z,15.17
2019-02-02T15:23:03.899Z,12.50
2019-02-02T15:25:34.664Z,10.40
2019-02-02T15:28:03.951Z,11.20
2019-02-02T15:30:33.674Z,13.43
2019-02-02T15:33:03.514Z,13.17
2019-02-02T15:35:34.400Z,13.33
2019-02-02T15:38:03.687Z,14.90
2019-02-02T15:40:33.176Z,13.07
2019-02-02T15:43:02.455Z,12.60
2019-02-02T15:45:32.024Z,12.67
2019-02-02T15:48:01.428Z,12.77
2019-02-02T15:50:30.715Z,14.97
2019-02-02T15:53:00.575Z,13.73
2019-02-02T15:55:30.325Z,14.13
2019-02-02T15:58:00.442Z,14.30
2019-02-02T16:00:34.813Z,16.00
2019-02-02T16:03:04.931Z,12.53
2019-02-02T16:05:34.922Z,14.07
2019-02-02T16:08:09.980Z,16.00
2019-02-02T16:10:39.197Z,15.57
2019-02-02T16:13:08.524Z,15.07
2019-02-02T16:15:37.759Z,14.77
2019-02-02T16:18:07.193Z,16.67
2019-02-02T16:20:42.278Z,14.67
2019-02-02T16:23:11.978Z,13.47
2019-02-02T16:25:41.780Z,15.03
2019-02-02T16:28:11.008Z,13.23
2019-02-02T16:30:40.306Z,14.43
2019-02-02T16:33:09.676Z,12.33
2019-02-02T16:35:38.908Z,17.17
2019-02-02T16:38:09.172Z,16.70
2019-02-02T16:40:38.396Z,18.03
2019-02-02T16:43:09.925Z,16.33
2019-02-02T16:45:39.202Z,17.10
2019-02-02T16:48:08.888Z,19.10
2019-02-02T16:50:38.207Z,14.30
2019-02-02T16:53:07.396Z,15.43
2019-02-02T16:55:36.654Z,14.63
2019-02-02T16:58:05.986Z,16.53
2019-02-02T17:00:35.263Z,16.17
2019-02-02T17:03:06.053Z,19.43
2019-02-02T17:05:35.399Z,13.90
2019-02-02T17:08:05.128Z,19.13
2019-02-02T17:10:38.476Z,14.33
2019-02-02T17:13:07.999Z,17.40
2019-02-02T17:15:40.094Z,17.47
2019-02-02T17:18:09.417Z,16.73
2019-02-02T17:20:45.165Z,18.80
2019-02-02T17:23:14.487Z,15.43
2019-02-02T17:25:43.744Z,17.33
2019-02-02T17:28:13.256Z,16.30
2019-02-02T17:30:42.836Z,16.77
2019-02-02T17:33:16.252Z,18.30
2019-02-02T17:35:46.013Z,16.77
2019-02-02T17:38:15.215Z,14.20
2019-02-02T17:40:44.482Z,15.83
2019-02-02T17:43:35.613Z,15.87
2019-02-02T17:46:10.990Z,14.93
2019-02-02T17:48:42.031Z,15.30
2019-02-02T17:51:12.870Z,13.40
2019-02-02T17:53:44.017Z,16.43
2019-02-02T17:56:15.912Z,15.50
2019-02-02T17:58:46.598Z,15.53
2019-02-02T18:01:19.629Z,14.07
2019-02-02T18:03:50.669Z,16.70
2019-02-02T18:06:30.039Z,13.57
2019-02-02T18:08:59.710Z,15.27
2019-02-02T18:11:29.166Z,19.83
2019-02-02T18:14:07.558Z,15.33
2019-02-02T18:16:39.351Z,15.77
2019-02-02T18:19:11.518Z,16.90
2019-02-02T18:21:48.055Z,14.13
2019-02-02T18:24:19.972Z,15.77
2019-02-02T18:27:05.965Z,14.83
2019-02-02T18:29:35.569Z,15.93
2019-02-02T18:32:13.829Z,16.50
2019-02-02T18:34:58.320Z,17.73
2019-02-02T18:37:50.356Z,15.03
2019-02-02T18:40:45.179Z,14.70
2019-02-02T18:43:20.291Z,14.17
2019-02-02T18:45:54.652Z,14.10
2019-02-02T18:48:33.432Z,14.87
2019-02-02T18:51:32.464Z,15.20
2019-02-02T18:54:02.352Z,16.10
2019-02-02T18:56:36.724Z,16.37
2019-02-02T19:02:18.359Z,12.73
2019-02-02T19:05:48.811Z,14.03
2019-02-02T19:08:54.751Z,14.73
2019-02-02T19:11:27.134Z,14.97
2019-02-02T19:14:01.091Z,16.33
2019-02-02T19:17:00.808Z,13.10
2019-02-02T19:19:30.334Z,16.20
2019-02-02T19:22:04.148Z,15.47
2019-02-02T19:24:42.350Z,15.57
2019-02-02T19:27:18.301Z,15.87
2019-02-02T19:29:51.305Z,17.83
2019-02-02T19:32:20.974Z,15.97
2019-02-02T19:35:00.360Z,14.03
2019-02-02T19:37:40.176Z,16.90
2019-02-02T19:40:12.412Z,13.87
2019-02-02T19:42:46.095Z,12.30
2019-02-02T19:45:21.298Z,13.23
2019-02-02T19:47:51.487Z,14.30
2019-02-02T19:50:25.559Z,14.17
2019-02-02T19:53:00.108Z,11.80
2019-02-02T19:55:40.430Z,17.17
2019-02-02T19:58:11.768Z,11.30
2019-02-02T20:00:45.741Z,17.93
2019-02-02T20:03:26.390Z,11.93
2019-02-02T20:06:11.535Z,13.83
2019-02-02T20:08:44.504Z,12.33
2019-02-02T20:11:35.837Z,11.47
2019-02-02T20:14:30.832Z,16.37
2019-02-02T20:17:00.133Z,12.00
2019-02-02T20:19:33.736Z,13.10
2019-02-02T20:22:04.083Z,14.57
2019-02-02T20:24:33.301Z,11.07
2019-02-02T20:27:05.035Z,12.53
2019-02-02T20:29:39.526Z,9.90
2019-02-02T20:32:16.300Z,13.53
2019-02-02T20:34:52.014Z,10.83
2019-02-02T20:37:56.605Z,11.87
2019-02-02T20:40:58.502Z,12.40
2019-02-02T20:43:54.987Z,11.50
2019-02-02T20:46:35.217Z,9.30
2019-02-02T20:49:08.793Z,11.03
2019-02-02T20:54:30.282Z,10.87
2019-02-02T21:00:49.824Z,7.07
2019-02-02T21:03:38.852Z,8.93
2019-02-02T21:13:14.952Z,8.97
2019-02-02T21:15:47.664Z,8.33
2019-02-02T21:18:25.405Z,12.23
2019-02-02T21:21:04.562Z,8.47
2019-02-02T21:23:34.783Z,8.17
2019-02-02T21:26:06.421Z,10.13
2019-02-02T21:28:50.043Z,9.20
2019-02-02T21:31:20.026Z,7.73
2019-02-02T21:33:52.060Z,8.03
2019-02-02T21:36:25.109Z,8.90
2019-02-02T21:38:56.420Z,8.30
2019-02-02T21:41:26.711Z,8.90
2019-02-02T21:44:02.364Z,7.77
2019-02-02T21:46:31.533Z,8.67
2019-02-02T21:49:04.038Z,8.50
2019-02-02T21:51:39.195Z,6.67
2019-02-02T21:54:12.763Z,8.67
2019-02-02T21:56:46.779Z,8.67
2019-02-02T21:59:29.457Z,7.00
2019-02-02T22:02:08.748Z,7.53
2019-02-02T22:04:52.231Z,7.47
2019-02-02T22:08:14.640Z,6.27
2019-02-02T22:11:10.625Z,5.90
2019-02-02T22:14:28.648Z,7.00
2019-02-02T22:17:42.052Z,6.23
2019-02-02T22:20:12.716Z,6.47
2019-02-02T22:22:48.636Z,7.43
2019-02-02T22:28:36.294Z,5.93
2019-02-02T22:31:05.531Z,6.23
2019-02-02T22:33:50.488Z,7.17
2019-02-02T22:36:32.056Z,5.30
2019-02-02T22:39:46.318Z,7.93
2019-02-02T22:43:18.896Z,6.57
2019-02-02T22:46:15.211Z,6.37
2019-02-02T22:59:27.029Z,4.10
2019-02-02T23:02:20.995Z,4.80
2019-02-02T23:05:28.215Z,7.67
2019-02-02T23:08:25.329Z,3.67
2019-02-02T23:11:47.195Z,4.60
2019-02-02T23:14:48.964Z,3.63
2019-02-02T23:17:19.106Z,3.63
2019-02-02T23:19:48.351Z,4.57
2019-02-02T23:22:18.790Z,5.20
2019-02-02T23:24:48.050Z,3.87
2019-02-02T23:27:17.268Z,5.30
2019-02-02T23:29:46.516Z,4.10
2019-02-02T23:32:15.715Z,4.30
2019-02-02T23:34:44.912Z,3.83
2019-02-02T23:37:14.227Z,4.23
2019-02-02T23:39:43.667Z,4.20
2019-02-02T23:42:12.850Z,3.10
2019-02-02T23:44:42.198Z,3.80
2019-02-02T23:47:11.382Z,3.73
2019-02-02T23:49:40.851Z,5.20
2019-02-02T23:52:10.074Z,2.63
2019-02-02T23:54:39.618Z,3.07
2019-02-02T23:57:08.808Z,3.70
2019-02-02T23:59:38.141Z,4.63
